Time,TemperatureF,DewpointF,PressureIn,WindDirection,WindDirectionDegrees,WindSpeedMPH,WindSpeedGustMPH,Humidity,HourlyPrecipIn,Conditions,Clouds,dailyrainin,SolarRadiationWatts/m^2,SoftwareType,DateUTC
2013-04-29 00:00:00,32.9,27.7,30.29,ENE,59,0.0,2.0,81,0.00,,---,0.00,0.00,VWS V14.00,2013-04-29 04:00:00,
2013-04-29 00:01:00,53.4,36.2,30.14,South,179,3.0,3.0,52,0.00,,---,0.00,0.00,VWS V14.00,2013-04-29 04:01:00,
2013-04-29 00:06:00,53.4,36.2,30.14,South,169,0.0,3.0,52,0.00,,---,0.00,0.00,VWS V14.00,2013-04-29 04:06:00,
2013-04-29 00:11:00,53.5,36.8,30.14,South,171,2.0,7.0,53,0.00,,---,0.00,0.00,VWS V14.00,2013-04-29 04:11:00,
2013-04-29 00:16:00,53.5,36.8,30.14,South,169,3.0,7.0,53,0.00,,---,0.00,0.00,VWS V14.00,2013-04-29 04:16:00,
2013-04-29 00:21:00,53.4,36.7,30.14,SSE,165,0.0,7.0,53,0.00,,---,0.00,0.00,VWS V14.00,2013-04-29 04:21:00,
2013-04-29 00:26:00,53.0,36.8,30.14,SSE,161,0.0,7.0,54,0.00,,---,0.00,0.00,VWS V14.00,2013-04-29 04:26:00,
2013-04-29 00:30:00,32.4,27.5,30.28,ENE,59,0.0,2.0,82,0.00,,---,0.00,0.00,VWS V14.00,2013-04-29 04:30:00,
2013-04-29 00:31:00,52.9,36.7,30.14,South,175,3.0,7.0,54,0.00,,---,0.00,0.00,VWS V14.00,2013-04-29 04:31:00,
2013-04-29 00:36:00,52.9,36.7,30.14,SSE,164,2.0,7.0,54,0.00,,---,0.00,0.00,VWS V14.00,2013-04-29 04:36:00,
2013-04-29 00:41:00,52.9,36.7,30.14,South,169,2.0,7.0,54,0.00,,---,0.00,0.00,VWS V14.00,2013-04-29 04:41:00,
2013-04-29 00:46:00,52.7,37.0,30.14,SSE,148,4.0,5.0,55,0.00,,---,0.00,0.00,VWS V14.00,2013-04-29 04:46:00,
2013-04-29 00:51:00,52.7,37.0,30.14,SSE,161,3.0,5.0,55,0.00,,---,0.00,0.00,VWS V14.00,2013-04-29 04:51:00,
2013-04-29 00:56:00,52.3,37.1,30.14,SSE,158,0.0,5.0,56,0.00,,---,0.00,0.00,VWS V14.00,2013-04-29 04:56:00,
2013-04-29 01:00:00,32.3,27.7,30.27,ENE,59,0.0,1.0,83,0.00,,---,0.00,0.00,VWS V14.00,2013-04-29 05:00:00,
2013-04-29 01:01:00,52.2,37.0,30.14,South,169,0.0,5.0,56,0.00,,---,0.00,0.00,VWS V14.00,2013-04-29 05:01:00,
2013-04-29 01:06:00,52.0,36.8,30.14,ESE,113,4.0,12.0,56,0.00,,---,0.00,0.00,VWS V14.00,2013-04-29 05:06:00,
2013-04-29 01:11:00,52.4,37.2,30.14,SE,128,4.0,12.0,56,0.00,,---,0.00,0.00,VWS V14.00,2013-04-29 05:11:00,
2013-04-29 01:16:00,52.8,37.5,30.14,SSE,151,1.0,1.0,56,0.00,,---,0.00,0.00,VWS V14.00,2013-04-29 05:16:00,
2013-04-29 01:21:00,52.3,37.1,30.14,ESE,115,2.0,3.0,56,0.00,,---,0.00,0.00,VWS V14.00,2013-04-29 05:21:00,
2013-04-29 01:26:00,52.0,37.2,30.13,ESE,113,0.0,6.0,57,0.00,,---,0.00,0.00,VWS V14.00,2013-04-29 05:26:00,
2013-04-29 01:30:00,31.4,26.8,30.27,ENE,59,0.0,1.0,83,0.00,,---,0.00,0.00,VWS V14.00,2013-04-29 05:30:00,
2013-04-29 01:31:00,52.0,37.2,30.13,SE,129,1.0,9.0,57,0.00,,---,0.00,0.00,VWS V14.00,2013-04-29 05:31:00,
2013-04-29 01:36:00,52.1,37.3,30.13,ESE,103,5.0,9.0,57,0.00,,---,0.00,0.00,VWS V14.00,2013-04-29 05:36:00,
2013-04-29 01:41:00,51.7,37.0,30.13,ESE,119,0.0,9.0,57,0.00,,---,0.00,0.00,VWS V14.00,2013-04-29 05:41:00,
2013-04-29 01:46:00,51.5,37.2,30.13,SE,130,0.0,2.0,58,0.00,,---,0.00,0.00,VWS V14.00,2013-04-29 05:46:00,
2013-04-29 01:51:00,51.3,37.0,30.13,ESE,104,0.0,4.0,58,0.00,,---,0.00,0.00,VWS V14.00,2013-04-29 05:51:00,
2013-04-29 01:56:00,51.2,37.4,30.13,East,98,0.0,7.0,59,0.00,,---,0.00,0.00,VWS V14.00,2013-04-29 05:56:00,
2013-04-29 02:00:00,31.0,27.0,30.27,ENE,59,0.0,1.0,85,0.00,,---,0.00,0.00,VWS V14.00,2013-04-29 06:00:00,
2013-04-29 02:01:00,50.9,37.1,30.13,SE,130,4.0,7.0,59,0.00,,---,0.00,0.00,VWS V14.00,2013-04-29 06:01:00,
2013-04-29 02:06:00,51.4,37.6,30.13,ENE,78,1.0,8.0,59,0.00,,---,0.00,0.00,VWS V14.00,2013-04-29 06:06:00,
2013-04-29 02:11:00,51.7,37.4,30.13,ESE,109,3.0,8.0,58,0.00,,---,0.00,0.00,VWS V14.00,2013-04-29 06:11:00,
2013-04-29 02:16:00,51.7,37.4,30.12,SE,138,0.0,1.0,58,0.00,,---,0.00,0.00,VWS V14.00,2013-04-29 06:16:00,
2013-04-29 02:21:00,51.2,37.4,30.12,SSE,148,2.0,2.0,59,0.00,,---,0.00,0.00,VWS V14.00,2013-04-29 06:21:00,
2013-04-29 02:26:00,50.8,37.4,30.12,ESE,107,2.0,4.0,60,0.00,,---,0.00,0.00,VWS V14.00,2013-04-29 06:26:00,
2013-04-29 02:30:00,31.4,27.4,30.27,ENE,59,0.0,1.0,85,0.00,,---,0.00,0.00,VWS V14.00,2013-04-29 06:30:00,
2013-04-29 02:31:00,50.8,37.4,30.12,East,96,5.0,8.0,60,0.00,,---,0.00,0.00,VWS V14.00,2013-04-29 06:31:00,
2013-04-29 02:36:00,51.2,37.4,30.12,East,101,0.0,8.0,59,0.00,,---,0.00,0.00,VWS V14.00,2013-04-29 06:36:00,
2013-04-29 02:41:00,51.2,37.4,30.12,East,90,5.0,8.0,59,0.00,,---,0.00,0.00,VWS V14.00,2013-04-29 06:41:00,
2013-04-29 02:46:00,51.2,37.4,30.12,East,98,2.0,3.0,59,0.00,,---,0.00,0.00,VWS V14.00,2013-04-29 06:46:00,
2013-04-29 02:51:00,51.0,37.6,30.12,ESE,112,3.0,4.0,60,0.00,,---,0.00,0.00,VWS V14.00,2013-04-29 06:51:00,
2013-04-29 02:56:00,50.9,37.5,30.12,ESE,102,3.0,5.0,60,0.00,,---,0.00,0.00,VWS V14.00,2013-04-29 06:56:00,
2013-04-29 03:00:00,31.9,27.9,30.26,ENE,59,0.0,3.0,85,0.00,,---,0.00,0.00,VWS V14.00,2013-04-29 07:00:00,
2013-04-29 03:01:00,51.0,37.2,30.12,East,90,2.0,6.0,59,0.00,,---,0.00,0.00,VWS V14.00,2013-04-29 07:01:00,
2013-04-29 03:06:00,51.1,37.3,30.12,ESE,110,5.0,6.0,59,0.00,,---,0.00,0.00,VWS V14.00,2013-04-29 07:06:00,
2013-04-29 03:11:00,51.2,37.4,30.12,ESE,107,2.0,6.0,59,0.00,,---,0.00,0.00,VWS V14.00,2013-04-29 07:11:00,
2013-04-29 03:16:00,51.2,37.4,30.12,ESE,104,1.0,6.0,59,0.00,,---,0.00,0.00,VWS V14.00,2013-04-29 07:16:00,
2013-04-29 03:21:00,51.2,37.4,30.12,ESE,105,0.0,6.0,59,0.00,,---,0.00,0.00,VWS V14.00,2013-04-29 07:21:00,
2013-04-29 03:26:00,50.7,37.3,30.12,ESE,105,0.0,6.0,60,0.00,,---,0.00,0.00,VWS V14.00,2013-04-29 07:26:00,
2013-04-29 03:30:00,32.3,28.0,30.26,ENE,59,0.0,3.0,84,0.00,,---,0.00,0.00,VWS V14.00,2013-04-29 07:30:00,
2013-04-29 03:31:00,49.9,37.4,30.12,ESE,105,0.0,6.0,62,0.00,,---,0.00,0.00,VWS V14.00,2013-04-29 07:31:00,
2013-04-29 03:36:00,49.6,37.9,30.12,ESE,105,0.0,6.0,64,0.00,,---,0.00,0.00,VWS V14.00,2013-04-29 07:36:00,
2013-04-29 03:41:00,49.4,37.8,30.12,ESE,105,0.0,6.0,64,0.00,,---,0.00,0.00,VWS V14.00,2013-04-29 07:41:00,
2013-04-29 03:46:00,49.3,37.7,30.12,ESE,105,0.0,0.0,64,0.00,,---,0.00,0.00,VWS V14.00,2013-04-29 07:46:00,
2013-04-29 03:51:00,48.8,37.6,30.12,ESE,105,0.0,1.0,65,0.00,,---,0.00,0.00,VWS V14.00,2013-04-29 07:51:00,
2013-04-29 03:56:00,48.5,37.7,30.13,ESE,105,0.0,1.0,66,0.00,,---,0.00,0.00,VWS V14.00,2013-04-29 07:56:00,
2013-04-29 04:00:00,32.8,28.2,30.26,East,92,1.0,3.0,83,0.00,,---,0.00,16.00,VWS V14.00,2013-04-29 08:00:00,
2013-04-29 04:01:00,48.1,37.3,30.13,ESE,105,0.0,1.0,66,0.00,,---,0.00,0.00,VWS V14.00,2013-04-29 08:01:00,
2013-04-29 04:06:00,47.7,37.7,30.13,ESE,105,0.0,1.0,68,0.00,,---,0.00,0.00,VWS V14.00,2013-04-29 08:06:00,
2013-04-29 04:11:00,47.4,37.8,30.13,ESE,105,0.0,2.0,69,0.00,,---,0.00,0.00,VWS V14.00,2013-04-29 08:11:00,
2013-04-29 04:16:00,47.0,37.7,30.13,ESE,105,0.0,0.0,70,0.00,,---,0.00,0.00,VWS V14.00,2013-04-29 08:16:00,
2013-04-29 04:21:00,46.7,37.5,30.13,ESE,105,0.0,3.0,70,0.00,,---,0.00,0.00,VWS V14.00,2013-04-29 08:21:00,
2013-04-29 04:26:00,46.2,37.3,30.12,ESE,105,0.0,3.0,71,0.00,,---,0.00,0.00,VWS V14.00,2013-04-29 08:26:00,
2013-04-29 04:30:00,33.6,28.7,30.26,East,89,2.0,3.0,82,0.00,,---,0.00,62.00,VWS V14.00,2013-04-29 08:30:00,
2013-04-29 04:31:00,45.9,37.0,30.13,ESE,105,0.0,3.0,71,0.00,,---,0.00,0.00,VWS V14.00,2013-04-29 08:31:00,
2013-04-29 04:36:00,45.6,37.1,30.13,ESE,105,0.0,3.0,72,0.00,,---,0.00,0.00,VWS V14.00,2013-04-29 08:36:00,
2013-04-29 04:41:00,45.5,37.4,30.13,ESE,105,3.0,3.0,73,0.00,,---,0.00,0.00,VWS V14.00,2013-04-29 08:41:00,
2013-04-29 04:46:00,45.4,37.3,30.13,ESE,105,1.0,1.0,73,0.00,,---,0.00,0.00,VWS V14.00,2013-04-29 08:46:00,
2013-04-29 04:51:00,45.2,37.1,30.13,ESE,105,0.0,2.0,73,0.00,,---,0.00,0.00,VWS V14.00,2013-04-29 08:51:00,
2013-04-29 04:56:00,45.1,37.3,30.13,ESE,105,2.0,2.0,74,0.00,,---,0.00,0.00,VWS V14.00,2013-04-29 08:56:00,
2013-04-29 05:00:00,39.5,31.9,30.27,ESE,102,3.0,5.0,74,0.00,,---,0.00,158.00,VWS V14.00,2013-04-29 09:00:00,
2013-04-29 05:01:00,45.0,37.2,30.13,ESE,105,0.0,2.0,74,0.00,,---,0.00,0.00,VWS V14.00,2013-04-29 09:01:00,
2013-04-29 05:06:00,44.9,37.1,30.13,ESE,105,2.0,3.0,74,0.00,,---,0.00,0.00,VWS V14.00,2013-04-29 09:06:00,
2013-04-29 05:11:00,44.9,37.5,30.13,ESE,105,0.0,3.0,75,0.00,,---,0.00,0.00,VWS V14.00,2013-04-29 09:11:00,
2013-04-29 05:16:00,44.5,37.1,30.13,ESE,105,0.0,1.0,75,0.00,,---,0.00,0.00,VWS V14.00,2013-04-29 09:16:00,
2013-04-29 05:21:00,44.3,37.2,30.13,ESE,105,2.0,2.0,76,0.00,,---,0.00,0.00,VWS V14.00,2013-04-29 09:21:00,
2013-04-29 05:26:00,44.1,37.4,30.13,ESE,105,2.0,3.0,77,0.00,,---,0.00,0.00,VWS V14.00,2013-04-29 09:26:00,
2013-04-29 05:30:00,46.6,32.2,30.28,ESE,111,2.0,5.0,57,0.00,,---,0.00,265.00,VWS V14.00,2013-04-29 09:30:00,
2013-04-29 05:31:00,44.0,37.6,30.13,ESE,105,1.0,3.0,78,0.00,,---,0.00,0.00,VWS V14.00,2013-04-29 09:31:00,
2013-04-29 05:36:00,44.1,37.7,30.13,ESE,105,2.0,3.0,78,0.00,,---,0.00,0.00,VWS V14.00,2013-04-29 09:36:00,
2013-04-29 05:41:00,44.0,37.3,30.13,East,90,3.0,5.0,77,0.00,,---,0.00,0.00,VWS V14.00,2013-04-29 09:41:00,
2013-04-29 05:46:00,43.9,37.5,30.14,East,90,0.0,2.0,78,0.00,,---,0.00,0.00,VWS V14.00,2013-04-29 09:46:00,
2013-04-29 05:51:00,43.8,37.4,30.14,East,90,0.0,2.0,78,0.00,,---,0.00,0.00,VWS V14.00,2013-04-29 09:51:00,
2013-04-29 05:56:00,43.8,37.4,30.14,East,90,2.0,2.0,78,0.00,,---,0.00,0.00,VWS V14.00,2013-04-29 09:56:00,
2013-04-29 06:00:00,53.2,31.9,30.28,SE,146,0.0,7.0,44,0.00,,---,0.00,359.00,VWS V14.00,2013-04-29 10:00:00,
2013-04-29 06:01:00,43.7,37.3,30.14,East,90,0.0,2.0,78,0.00,,---,0.00,7.00,VWS V14.00,2013-04-29 10:01:00,
2013-04-29 06:06:00,43.7,37.3,30.14,East,90,0.0,2.0,78,0.00,,---,0.00,11.00,VWS V14.00,2013-04-29 10:06:00,
2013-04-29 06:11:00,43.8,37.7,30.14,East,90,0.0,2.0,79,0.00,,---,0.00,14.00,VWS V14.00,2013-04-29 10:11:00,
2013-04-29 06:16:00,43.9,38.1,30.14,East,90,0.0,0.0,80,0.00,,---,0.00,18.00,VWS V14.00,2013-04-29 10:16:00,
2013-04-29 06:21:00,43.9,38.1,30.14,East,90,1.0,2.0,80,0.00,,---,0.00,21.00,VWS V14.00,2013-04-29 10:21:00,
2013-04-29 06:26:00,43.9,37.8,30.14,East,90,0.0,2.0,79,0.00,,---,0.00,26.00,VWS V14.00,2013-04-29 10:26:00,
2013-04-29 06:30:00,55.8,32.5,30.28,East,99,3.0,8.0,41,0.00,,---,0.00,452.00,VWS V14.00,2013-04-29 10:30:00,
2013-04-29 06:31:00,43.8,37.7,30.14,East,90,0.0,2.0,79,0.00,,---,0.00,32.00,VWS V14.00,2013-04-29 10:31:00,
2013-04-29 06:36:00,43.8,37.7,30.15,East,90,1.0,2.0,79,0.00,,---,0.00,39.00,VWS V14.00,2013-04-29 10:36:00,
2013-04-29 06:41:00,44.0,38.2,30.15,East,90,0.0,2.0,80,0.00,,---,0.00,47.00,VWS V14.00,2013-04-29 10:41:00,
2013-04-29 06:46:00,44.0,38.2,30.15,East,90,0.0,0.0,80,0.00,,---,0.00,58.00,VWS V14.00,2013-04-29 10:46:00,
2013-04-29 06:52:00,44.2,38.4,30.14,East,90,1.0,1.0,80,0.00,,---,0.00,72.00,VWS V14.00,2013-04-29 10:52:00,
2013-04-29 06:57:00,44.3,38.5,30.15,East,90,0.0,2.0,80,0.00,,---,0.00,86.00,VWS V14.00,2013-04-29 10:57:00,
2013-04-29 07:00:00,57.4,31.4,30.28,South,186,0.0,10.0,37,0.00,,---,0.00,541.00,VWS V14.00,2013-04-29 11:00:00,
2013-04-29 07:02:00,44.5,39.0,30.15,East,90,0.0,2.0,81,0.00,,---,0.00,100.00,VWS V14.00,2013-04-29 11:02:00,
2013-04-29 07:07:00,44.7,39.2,30.15,East,90,0.0,2.0,81,0.00,,---,0.00,111.00,VWS V14.00,2013-04-29 11:07:00,
2013-04-29 07:12:00,45.0,39.5,30.15,East,90,0.0,2.0,81,0.00,,---,0.00,123.00,VWS V14.00,2013-04-29 11:12:00,
2013-04-29 07:17:00,45.3,39.8,30.15,East,90,0.0,0.0,81,0.00,,---,0.00,134.00,VWS V14.00,2013-04-29 11:17:00,
2013-04-29 07:22:00,45.9,40.4,30.15,East,90,0.0,1.0,81,0.00,,---,0.00,141.00,VWS V14.00,2013-04-29 11:22:00,
2013-04-29 07:27:00,46.3,40.5,30.15,East,90,0.0,1.0,80,0.00,,---,0.00,158.00,VWS V14.00,2013-04-29 11:27:00,
2013-04-29 07:30:00,58.4,32.9,30.27,South,172,1.0,9.0,38,0.00,,---,0.00,622.00,VWS V14.00,2013-04-29 11:30:00,
2013-04-29 07:32:00,47.0,40.8,30.16,East,90,0.0,1.0,79,0.00,,---,0.00,156.00,VWS V14.00,2013-04-29 11:32:00,
2013-04-29 07:37:00,47.5,41.0,30.16,East,90,0.0,1.0,78,0.00,,---,0.00,155.00,VWS V14.00,2013-04-29 11:37:00,
2013-04-29 07:42:00,48.3,41.4,30.16,East,90,0.0,2.0,77,0.00,,---,0.00,155.00,VWS V14.00,2013-04-29 11:42:00,
2013-04-29 07:47:00,48.7,41.1,30.16,East,90,0.0,0.0,75,0.00,,---,0.00,163.00,VWS V14.00,2013-04-29 11:47:00,
2013-04-29 07:52:00,49.9,39.4,30.16,SSE,154,2.0,5.0,67,0.00,,---,0.00,179.00,VWS V14.00,2013-04-29 11:52:00,
2013-04-29 07:57:00,51.7,38.7,30.16,South,170,2.0,5.0,61,0.00,,---,0.00,186.00,VWS V14.00,2013-04-29 11:57:00,
2013-04-29 08:00:00,59.3,33.0,30.26,SW,219,4.0,8.0,37,0.00,,---,0.00,696.00,VWS V14.00,2013-04-29 12:00:00,
2013-04-29 08:02:00,52.7,37.0,30.16,SW,236,5.0,6.0,55,0.00,,---,0.00,185.00,VWS V14.00,2013-04-29 12:02:00,
2013-04-29 08:07:00,53.4,37.2,30.15,South,185,0.0,8.0,54,0.00,,---,0.00,169.00,VWS V14.00,2013-04-29 12:07:00,
2013-04-29 08:12:00,53.7,37.5,30.15,South,184,1.0,8.0,54,0.00,,---,0.00,165.00,VWS V14.00,2013-04-29 12:12:00,
2013-04-29 08:17:00,54.0,37.3,30.15,SSW,197,1.0,4.0,53,0.00,,---,0.00,181.00,VWS V14.00,2013-04-29 12:17:00,
2013-04-29 08:22:00,54.2,36.5,30.15,SSW,197,1.0,4.0,51,0.00,,---,0.00,202.00,VWS V14.00,2013-04-29 12:22:00,
2013-04-29 08:27:00,54.5,36.3,30.16,SSE,154,0.0,4.0,50,0.00,,---,0.00,248.00,VWS V14.00,2013-04-29 12:27:00,
2013-04-29 08:30:00,60.4,34.0,30.25,SSW,198,3.0,9.0,37,0.00,,---,0.00,765.00,VWS V14.00,2013-04-29 12:30:00,
2013-04-29 08:32:00,54.7,35.9,30.15,SE,146,5.0,7.0,49,0.00,,---,0.00,269.00,VWS V14.00,2013-04-29 12:32:00,
2013-04-29 08:37:00,54.9,36.1,30.15,SSE,159,3.0,10.0,49,0.00,,---,0.00,285.00,VWS V14.00,2013-04-29 12:37:00,
2013-04-29 08:42:00,55.0,35.7,30.15,South,169,2.0,10.0,48,0.00,,---,0.00,304.00,VWS V14.00,2013-04-29 12:42:00,
2013-04-29 08:47:00,55.2,36.4,30.15,SSE,167,3.0,6.0,49,0.00,,---,0.00,288.00,VWS V14.00,2013-04-29 12:47:00,
2013-04-29 08:52:00,55.4,36.6,30.15,SSE,151,1.0,9.0,49,0.00,,---,0.00,359.00,VWS V14.00,2013-04-29 12:52:00,
2013-04-29 08:57:00,55.8,35.9,30.15,South,175,2.0,9.0,47,0.00,,---,0.00,392.00,VWS V14.00,2013-04-29 12:57:00,
2013-04-29 09:00:00,61.7,34.5,30.25,West,271,2.0,8.0,36,0.00,,---,0.00,814.00,VWS V14.00,2013-04-29 13:00:00,
2013-04-29 09:02:00,56.0,36.6,30.15,SSE,166,3.0,9.0,48,0.00,,---,0.00,376.00,VWS V14.00,2013-04-29 13:02:00,
2013-04-29 09:07:00,56.1,36.7,30.15,SSW,213,3.0,9.0,48,0.00,,---,0.00,425.00,VWS V14.00,2013-04-29 13:07:00,
2013-04-29 09:12:00,56.6,37.2,30.15,South,175,3.0,9.0,48,0.00,,---,0.00,376.00,VWS V14.00,2013-04-29 13:12:00,
2013-04-29 09:17:00,56.8,36.3,30.15,South,185,4.0,8.0,46,0.00,,---,0.00,330.00,VWS V14.00,2013-04-29 13:17:00,
2013-04-29 09:22:00,56.7,36.2,30.15,WSW,254,5.0,9.0,46,0.00,,---,0.00,327.00,VWS V14.00,2013-04-29 13:22:00,
2013-04-29 09:27:00,56.9,36.9,30.15,WSW,250,6.0,9.0,47,0.00,,---,0.00,325.00,VWS V14.00,2013-04-29 13:27:00,
2013-04-29 09:30:00,62.2,36.3,30.25,SW,234,1.0,9.0,38,0.00,,---,0.00,817.00,VWS V14.00,2013-04-29 13:30:00,
2013-04-29 09:32:00,56.9,36.9,30.15,SW,225,3.0,9.0,47,0.00,,---,0.00,371.00,VWS V14.00,2013-04-29 13:32:00,
2013-04-29 09:37:00,57.1,37.1,30.15,SW,219,0.0,9.0,47,0.00,,---,0.00,357.00,VWS V14.00,2013-04-29 13:37:00,
2013-04-29 09:42:00,57.3,37.3,30.14,South,184,2.0,9.0,47,0.00,,---,0.00,341.00,VWS V14.00,2013-04-29 13:42:00,
2013-04-29 09:47:00,57.3,37.3,30.14,South,184,4.0,4.0,47,0.00,,---,0.00,339.00,VWS V14.00,2013-04-29 13:47:00,
2013-04-29 09:52:00,57.1,36.5,30.14,SSW,193,1.0,7.0,46,0.00,,---,0.00,345.00,VWS V14.00,2013-04-29 13:52:00,
2013-04-29 09:57:00,57.2,37.2,30.14,SSE,166,1.0,7.0,47,0.00,,---,0.00,339.00,VWS V14.00,2013-04-29 13:57:00,
2013-04-29 10:00:00,63.2,37.2,30.24,WSW,240,3.0,11.0,38,0.00,,---,0.00,877.00,VWS V14.00,2013-04-29 14:00:00,
2013-04-29 10:02:00,57.4,36.8,30.14,SSE,154,1.0,7.0,46,0.00,,---,0.00,323.00,VWS V14.00,2013-04-29 14:02:00,
2013-04-29 10:07:00,57.7,36.5,30.14,SSE,162,2.0,7.0,45,0.00,,---,0.00,332.00,VWS V14.00,2013-04-29 14:07:00,
2013-04-29 10:12:00,58.0,39.0,30.14,SE,146,2.0,7.0,49,0.00,,---,0.00,332.00,VWS V14.00,2013-04-29 14:12:00,
2013-04-29 10:17:00,57.8,37.2,30.14,South,171,3.0,8.0,46,0.00,,---,0.00,311.00,VWS V14.00,2013-04-29 14:17:00,
2013-04-29 10:22:00,57.8,36.6,30.14,South,173,5.0,8.0,45,0.00,,---,0.00,294.00,VWS V14.00,2013-04-29 14:22:00,
2013-04-29 10:27:00,57.6,36.4,30.14,SE,140,4.0,8.0,45,0.00,,---,0.00,309.00,VWS V14.00,2013-04-29 14:27:00,
2013-04-29 10:30:00,63.4,37.4,30.23,SSW,208,0.0,10.0,38,0.00,,---,0.00,895.00,VWS V14.00,2013-04-29 14:30:00,
2013-04-29 10:32:00,57.6,37.0,30.14,South,181,1.0,8.0,46,0.00,,---,0.00,341.00,VWS V14.00,2013-04-29 14:32:00,
2013-04-29 10:37:00,57.8,37.7,30.14,South,178,3.0,8.0,47,0.00,,---,0.00,369.00,VWS V14.00,2013-04-29 14:37:00,
2013-04-29 10:42:00,57.7,37.1,30.14,SSE,164,3.0,8.0,46,0.00,,---,0.00,425.00,VWS V14.00,2013-04-29 14:42:00,
2013-04-29 10:47:00,57.8,37.2,30.14,South,172,10.0,12.0,46,0.00,,---,0.00,452.00,VWS V14.00,2013-04-29 14:47:00,
2013-04-29 10:52:00,58.0,37.4,30.14,South,169,6.0,12.0,46,0.00,,---,0.00,399.00,VWS V14.00,2013-04-29 14:52:00,
2013-04-29 10:58:00,57.9,37.8,30.14,WSW,255,7.0,15.0,47,0.00,,---,0.00,388.00,VWS V14.00,2013-04-29 14:58:00,
2013-04-29 11:00:00,64.4,38.3,30.21,South,173,3.0,9.0,38,0.00,,---,0.00,898.00,VWS V14.00,2013-04-29 15:00:00,
2013-04-29 11:03:00,58.0,37.9,30.14,WSW,245,3.0,15.0,47,0.00,,---,0.00,388.00,VWS V14.00,2013-04-29 15:03:00,
2013-04-29 11:08:00,58.2,38.6,30.14,SSE,148,4.0,15.0,48,0.00,,---,0.00,410.00,VWS V14.00,2013-04-29 15:08:00,
2013-04-29 11:15:00,58.3,38.2,30.14,SE,138,4.0,15.0,47,0.00,,---,0.00,394.00,VWS V14.00,2013-04-29 15:15:00,
2013-04-29 11:20:00,58.5,38.9,30.14,SE,141,3.0,5.0,48,0.00,,---,0.00,362.00,VWS V14.00,2013-04-29 15:20:00,
2013-04-29 11:25:00,58.2,38.6,30.14,SSE,168,2.0,11.0,48,0.00,,---,0.00,373.00,VWS V14.00,2013-04-29 15:25:00,
2013-04-29 11:30:00,58.5,39.4,30.14,SSE,161,2.0,11.0,49,0.00,,---,0.00,397.00,VWS V14.00,2013-04-29 15:30:00,
2013-04-29 11:35:00,58.5,38.4,30.14,SSE,162,4.0,11.0,47,0.00,,---,0.00,415.00,VWS V14.00,2013-04-29 15:35:00,
2013-04-29 11:40:00,58.2,38.1,30.13,SSE,163,4.0,14.0,47,0.00,,---,0.00,510.00,VWS V14.00,2013-04-29 15:40:00,
2013-04-29 11:46:00,58.8,38.1,30.14,SW,214,1.0,7.0,46,0.00,,---,0.00,689.00,VWS V14.00,2013-04-29 15:46:00,
2013-04-29 11:51:00,59.3,38.5,30.13,South,179,6.0,14.0,46,0.00,,---,0.00,485.00,VWS V14.00,2013-04-29 15:51:00,
2013-04-29 11:56:00,59.5,39.3,30.13,SSW,192,1.0,14.0,47,0.00,,---,0.00,633.00,VWS V14.00,2013-04-29 15:56:00,
2013-04-29 12:00:00,66.9,36.1,30.18,WSW,247,5.0,10.0,32,0.00,,---,0.00,858.00,VWS V14.00,2013-04-29 16:00:00,
2013-04-29 12:01:00,60.3,39.5,30.13,South,180,4.0,14.0,46,0.00,,---,0.00,682.00,VWS V14.00,2013-04-29 16:01:00,
2013-04-29 12:06:00,60.5,39.1,30.13,SSE,156,5.0,14.0,45,0.00,,---,0.00,612.00,VWS V14.00,2013-04-29 16:06:00,
2013-04-29 12:11:00,60.6,39.2,30.12,SSE,167,4.0,14.0,45,0.00,,---,0.00,555.00,VWS V14.00,2013-04-29 16:11:00,
2013-04-29 12:16:00,61.2,39.7,30.12,SW,216,5.0,13.0,45,0.00,,---,0.00,587.00,VWS V14.00,2013-04-29 16:16:00,
2013-04-29 12:21:00,61.1,39.6,30.12,SW,224,5.0,14.0,45,0.00,,---,0.00,496.00,VWS V14.00,2013-04-29 16:21:00,
2013-04-29 12:26:00,61.0,39.0,30.12,ESE,115,7.0,14.0,44,0.00,,---,0.00,436.00,VWS V14.00,2013-04-29 16:26:00,
2013-04-29 12:30:00,60.4,39.5,30.12,SSE,167,3.0,14.0,46,0.00,,---,0.00,380.00,VWS V14.00,2013-04-29 16:30:00,
2013-04-29 12:36:00,60.3,38.9,30.12,SE,141,4.0,14.0,45,0.00,,---,0.00,371.00,VWS V14.00,2013-04-29 16:36:00,
2013-04-29 12:41:00,60.1,39.3,30.11,SSE,168,4.0,14.0,46,0.00,,---,0.00,366.00,VWS V14.00,2013-04-29 16:41:00,
2013-04-29 12:46:00,60.3,38.9,30.12,South,174,4.0,6.0,45,0.00,,---,0.00,330.00,VWS V14.00,2013-04-29 16:46:00,
2013-04-29 12:51:00,60.3,39.5,30.12,SE,142,4.0,10.0,46,0.00,,---,0.00,322.00,VWS V14.00,2013-04-29 16:51:00,
2013-04-29 12:56:00,60.3,39.5,30.11,SE,126,4.0,11.0,46,0.00,,---,0.00,309.00,VWS V14.00,2013-04-29 16:56:00,
2013-04-29 13:00:00,67.4,36.5,30.16,North,5,2.0,12.0,32,0.00,,---,0.00,765.00,VWS V14.00,2013-04-29 17:00:00,
2013-04-29 13:01:00,60.3,39.5,30.11,South,186,4.0,11.0,46,0.00,,---,0.00,285.00,VWS V14.00,2013-04-29 17:01:00,
2013-04-29 13:06:00,60.5,39.6,30.11,South,169,3.0,11.0,46,0.00,,---,0.00,288.00,VWS V14.00,2013-04-29 17:06:00,
2013-04-29 13:11:00,60.3,40.0,30.11,SW,215,2.0,11.0,47,0.00,,---,0.00,276.00,VWS V14.00,2013-04-29 17:11:00,
2013-04-29 13:16:00,60.6,39.7,30.11,SSE,150,1.0,1.0,46,0.00,,---,0.00,262.00,VWS V14.00,2013-04-29 17:16:00,
2013-04-29 13:21:00,60.7,39.8,30.11,WSW,246,2.0,9.0,46,0.00,,---,0.00,264.00,VWS V14.00,2013-04-29 17:21:00,
2013-04-29 13:26:00,60.7,40.4,30.11,SSE,161,3.0,9.0,47,0.00,,---,0.00,279.00,VWS V14.00,2013-04-29 17:26:00,
2013-04-29 13:30:00,67.6,35.9,30.15,SW,219,1.0,9.0,31,0.00,,---,0.00,668.00,VWS V14.00,2013-04-29 17:30:00,
2013-04-29 13:31:00,60.9,41.6,30.11,SSW,207,4.0,9.0,49,0.00,,---,0.00,290.00,VWS V14.00,2013-04-29 17:31:00,
2013-04-29 13:36:00,60.7,40.9,30.11,SW,232,4.0,9.0,48,0.00,,---,0.00,330.00,VWS V14.00,2013-04-29 17:36:00,
2013-04-29 13:41:00,60.6,41.4,30.11,WSW,257,3.0,9.0,49,0.00,,---,0.00,446.00,VWS V14.00,2013-04-29 17:41:00,
2013-04-29 13:46:00,60.8,41.5,30.11,WSW,242,0.0,2.0,49,0.00,,---,0.00,494.00,VWS V14.00,2013-04-29 17:46:00,
2013-04-29 13:51:00,61.0,41.7,30.11,South,175,0.0,5.0,49,0.00,,---,0.00,657.00,VWS V14.00,2013-04-29 17:51:00,
2013-04-29 13:56:00,62.1,42.2,30.11,WSW,250,4.0,7.0,48,0.00,,---,0.00,555.00,VWS V14.00,2013-04-29 17:56:00,
2013-04-29 14:00:00,67.0,33.7,30.14,ENE,73,3.0,8.0,29,0.00,,---,0.00,643.00,VWS V14.00,2013-04-29 18:00:00,
2013-04-29 14:01:00,62.5,42.0,30.10,SW,215,3.0,8.0,47,0.00,,---,0.00,598.00,VWS V14.00,2013-04-29 18:01:00,
2013-04-29 14:06:00,62.2,41.2,30.11,SSE,160,4.0,10.0,46,0.00,,---,0.00,427.00,VWS V14.00,2013-04-29 18:06:00,
2013-04-29 14:11:00,62.1,41.1,30.11,South,178,0.0,10.0,46,0.00,,---,0.00,348.00,VWS V14.00,2013-04-29 18:11:00,
2013-04-29 14:16:00,61.4,41.0,30.11,SSW,208,1.0,4.0,47,0.00,,---,0.00,352.00,VWS V14.00,2013-04-29 18:16:00,
2013-04-29 14:21:00,61.6,42.3,30.11,WSW,250,3.0,5.0,49,0.00,,---,0.00,403.00,VWS V14.00,2013-04-29 18:21:00,
2013-04-29 14:26:00,61.8,42.5,30.11,WSW,246,4.0,7.0,49,0.00,,---,0.00,394.00,VWS V14.00,2013-04-29 18:26:00,
2013-04-29 14:30:00,67.7,33.5,30.13,South,180,0.0,9.0,28,0.00,,---,0.00,554.00,VWS V14.00,2013-04-29 18:30:00,
2013-04-29 14:31:00,61.8,41.9,30.11,WSW,244,0.0,9.0,48,0.00,,---,0.00,309.00,VWS V14.00,2013-04-29 18:31:00,
2013-04-29 14:36:00,61.9,43.1,30.11,SSW,207,1.0,9.0,50,0.00,,---,0.00,255.00,VWS V14.00,2013-04-29 18:36:00,
2013-04-29 14:41:00,61.9,43.6,30.11,WSW,250,7.0,9.0,51,0.00,,---,0.00,255.00,VWS V14.00,2013-04-29 18:41:00,
2013-04-29 14:46:00,61.8,43.5,30.11,West,261,3.0,3.0,51,0.00,,---,0.00,241.00,VWS V14.00,2013-04-29 18:46:00,
2013-04-29 14:51:00,61.6,43.3,30.11,South,176,0.0,5.0,51,0.00,,---,0.00,216.00,VWS V14.00,2013-04-29 18:51:00,
2013-04-29 14:56:00,61.0,43.8,30.11,SSW,204,0.0,5.0,53,0.00,,---,0.00,188.00,VWS V14.00,2013-04-29 18:56:00,
2013-04-29 15:00:00,67.4,34.9,30.13,WSW,240,0.0,9.0,30,0.00,,---,0.00,461.00,VWS V14.00,2013-04-29 19:00:00,
2013-04-29 15:01:00,60.6,43.4,30.11,WSW,252,5.0,6.0,53,0.00,,---,0.00,195.00,VWS V14.00,2013-04-29 19:01:00,
2013-04-29 15:06:00,60.2,43.0,30.11,SW,224,2.0,7.0,53,0.00,,---,0.00,197.00,VWS V14.00,2013-04-29 19:06:00,
2013-04-29 15:11:00,59.9,43.7,30.11,WSW,242,3.0,8.0,55,0.00,,---,0.00,192.00,VWS V14.00,2013-04-29 19:11:00,
2013-04-29 15:16:00,59.6,43.4,30.11,SSE,157,3.0,7.0,55,0.00,,---,0.00,178.00,VWS V14.00,2013-04-29 19:16:00,
2013-04-29 15:21:00,59.3,43.2,30.11,SW,231,1.0,7.0,55,0.00,,---,0.00,169.00,VWS V14.00,2013-04-29 19:21:00,
2013-04-29 15:26:00,59.1,43.4,30.11,WSW,258,0.0,7.0,56,0.00,,---,0.00,156.00,VWS V14.00,2013-04-29 19:26:00,
2013-04-29 15:30:00,67.4,34.1,30.13,ESE,113,0.0,9.0,29,0.00,,---,0.00,332.00,VWS V14.00,2013-04-29 19:30:00,
2013-04-29 15:31:00,58.9,43.7,30.11,WSW,245,3.0,9.0,57,0.00,,---,0.00,146.00,VWS V14.00,2013-04-29 19:31:00,
2013-04-29 15:36:00,58.6,43.4,30.11,West,267,2.0,9.0,57,0.00,,---,0.00,151.00,VWS V14.00,2013-04-29 19:36:00,
2013-04-29 15:41:00,58.5,43.8,30.11,WSW,252,1.0,9.0,58,0.00,,---,0.00,149.00,VWS V14.00,2013-04-29 19:41:00,
2013-04-29 15:46:00,58.2,43.5,30.11,WSW,253,1.0,3.0,58,0.00,,---,0.00,155.00,VWS V14.00,2013-04-29 19:46:00,
2013-04-29 15:51:00,58.1,43.9,30.11,West,272,3.0,6.0,59,0.00,,---,0.00,165.00,VWS V14.00,2013-04-29 19:51:00,
2013-04-29 15:56:00,58.0,43.8,30.11,WSW,248,0.0,8.0,59,0.00,,---,0.00,171.00,VWS V14.00,2013-04-29 19:56:00,
2013-04-29 16:00:00,66.0,34.5,30.12,SW,218,2.0,7.0,31,0.00,,---,0.00,51.00,VWS V14.00,2013-04-29 20:00:00,
2013-04-29 16:01:00,58.0,43.8,30.11,SW,226,0.0,8.0,59,0.00,,---,0.00,171.00,VWS V14.00,2013-04-29 20:01:00,
2013-04-29 16:06:00,58.0,44.2,30.11,SSW,213,0.0,8.0,60,0.00,,---,0.00,169.00,VWS V14.00,2013-04-29 20:06:00,
2013-04-29 16:11:00,57.9,43.7,30.11,WSW,242,2.0,8.0,59,0.00,,---,0.00,169.00,VWS V14.00,2013-04-29 20:11:00,
2013-04-29 16:16:00,58.0,43.8,30.11,SW,221,4.0,4.0,59,0.00,,---,0.00,162.00,VWS V14.00,2013-04-29 20:16:00,
2013-04-29 16:21:00,58.1,43.9,30.11,SW,215,0.0,4.0,59,0.00,,---,0.00,134.00,VWS V14.00,2013-04-29 20:21:00,
2013-04-29 16:26:00,58.0,43.8,30.11,South,186,4.0,8.0,59,0.00,,---,0.00,118.00,VWS V14.00,2013-04-29 20:26:00,
2013-04-29 16:30:00,65.1,34.5,30.11,South,188,0.0,5.0,32,0.00,,---,0.00,40.00,VWS V14.00,2013-04-29 20:30:00,
2013-04-29 16:31:00,57.8,44.0,30.11,SW,230,2.0,8.0,60,0.00,,---,0.00,109.00,VWS V14.00,2013-04-29 20:31:00,
2013-04-29 16:36:00,57.8,44.0,30.11,SW,230,7.0,8.0,60,0.00,,---,0.00,111.00,VWS V14.00,2013-04-29 20:36:00,
2013-04-29 16:41:00,57.8,44.0,30.11,SSW,212,1.0,8.0,60,0.00,,---,0.00,125.00,VWS V14.00,2013-04-29 20:41:00,
2013-04-29 16:46:00,57.5,44.2,30.12,West,269,2.0,3.0,61,0.00,,---,0.00,128.00,VWS V14.00,2013-04-29 20:46:00,
2013-04-29 16:51:00,57.3,43.5,30.12,SW,234,3.0,7.0,60,0.00,,---,0.00,113.00,VWS V14.00,2013-04-29 20:51:00,
2013-04-29 16:56:00,57.2,43.9,30.12,SW,215,4.0,7.0,61,0.00,,---,0.00,90.00,VWS V14.00,2013-04-29 20:56:00,
2013-04-29 17:00:00,63.8,40.3,30.11,WNW,295,0.0,3.0,42,0.00,,---,0.00,30.00,VWS V14.00,2013-04-29 21:00:00,
2013-04-29 17:01:00,57.0,44.1,30.12,South,182,3.0,7.0,62,0.00,,---,0.00,76.00,VWS V14.00,2013-04-29 21:01:00,
2013-04-29 17:06:00,56.6,44.2,30.12,South,186,2.0,7.0,63,0.00,,---,0.00,72.00,VWS V14.00,2013-04-29 21:06:00,
2013-04-29 17:11:00,56.4,44.0,30.12,South,186,0.0,7.0,63,0.00,,---,0.00,65.00,VWS V14.00,2013-04-29 21:11:00,
2013-04-29 17:16:00,56.4,44.0,30.12,South,186,0.0,1.0,63,0.00,,---,0.00,63.00,VWS V14.00,2013-04-29 21:16:00,
2013-04-29 17:21:00,56.1,44.1,30.12,West,264,3.0,6.0,64,0.00,,---,0.00,60.00,VWS V14.00,2013-04-29 21:21:00,
2013-04-29 17:26:00,56.0,44.0,30.12,SSW,207,3.0,6.0,64,0.00,,---,0.00,56.00,VWS V14.00,2013-04-29 21:26:00,
2013-04-29 17:30:00,59.9,39.6,30.10,WNW,295,0.0,1.0,47,0.00,,---,0.00,7.00,VWS V14.00,2013-04-29 21:30:00,
2013-04-29 17:31:00,55.8,44.2,30.12,SW,217,0.0,6.0,65,0.00,,---,0.00,53.00,VWS V14.00,2013-04-29 21:31:00,
2013-04-29 17:36:00,55.7,44.1,30.12,West,271,0.0,6.0,65,0.00,,---,0.00,49.00,VWS V14.00,2013-04-29 21:36:00,
2013-04-29 17:41:00,55.7,44.1,30.12,West,267,0.0,6.0,65,0.00,,---,0.00,49.00,VWS V14.00,2013-04-29 21:41:00,
2013-04-29 17:46:00,55.7,44.1,30.12,West,267,0.0,1.0,65,0.00,,---,0.00,46.00,VWS V14.00,2013-04-29 21:46:00,
2013-04-29 17:51:00,55.7,44.5,30.12,West,267,0.0,2.0,66,0.00,,---,0.00,42.00,VWS V14.00,2013-04-29 21:51:00,
2013-04-29 17:56:00,55.6,44.4,30.12,West,267,2.0,2.0,66,0.00,,---,0.00,37.00,VWS V14.00,2013-04-29 21:56:00,
2013-04-29 18:00:00,55.4,39.5,30.11,WNW,295,0.0,1.0,55,0.00,,---,0.00,0.00,VWS V14.00,2013-04-29 22:00:00,
2013-04-29 18:01:00,55.6,44.4,30.12,West,267,0.0,2.0,66,0.00,,---,0.00,39.00,VWS V14.00,2013-04-29 22:01:00,
2013-04-29 18:06:00,55.6,44.4,30.13,West,267,0.0,2.0,66,0.00,,---,0.00,32.00,VWS V14.00,2013-04-29 22:06:00,
2013-04-29 18:11:00,55.6,44.4,30.12,West,267,0.0,2.0,66,0.00,,---,0.00,30.00,VWS V14.00,2013-04-29 22:11:00,
2013-04-29 18:16:00,55.5,44.3,30.13,West,267,0.0,0.0,66,0.00,,---,0.00,26.00,VWS V14.00,2013-04-29 22:16:00,
2013-04-29 18:21:00,55.5,44.7,30.13,West,267,0.0,0.0,67,0.00,,---,0.00,26.00,VWS V14.00,2013-04-29 22:21:00,
2013-04-29 18:26:00,55.5,44.7,30.13,West,267,0.0,0.0,67,0.00,,---,0.00,25.00,VWS V14.00,2013-04-29 22:26:00,
2013-04-29 18:30:00,52.2,39.6,30.11,NE,43,0.0,2.0,62,0.00,,---,0.00,0.00,VWS V14.00,2013-04-29 22:30:00,
2013-04-29 18:31:00,55.5,44.7,30.13,West,267,0.0,0.0,67,0.00,,---,0.00,25.00,VWS V14.00,2013-04-29 22:31:00,
2013-04-29 18:36:00,55.5,44.7,30.13,West,267,0.0,0.0,67,0.00,,---,0.00,26.00,VWS V14.00,2013-04-29 22:36:00,
2013-04-29 18:41:00,55.5,44.7,30.13,West,267,0.0,0.0,67,0.00,,---,0.00,25.00,VWS V14.00,2013-04-29 22:41:00,
2013-04-29 18:46:00,55.4,45.0,30.13,West,267,0.0,0.0,68,0.00,,---,0.00,19.00,VWS V14.00,2013-04-29 22:46:00,
2013-04-29 18:51:00,55.4,45.0,30.13,West,267,0.0,0.0,68,0.00,,---,0.00,18.00,VWS V14.00,2013-04-29 22:51:00,
2013-04-29 18:56:00,55.3,44.9,30.13,West,267,0.0,0.0,68,0.00,,---,0.00,16.00,VWS V14.00,2013-04-29 22:56:00,
2013-04-29 19:00:00,50.4,38.3,30.12,ENE,65,0.0,3.0,63,0.00,,---,0.00,0.00,VWS V14.00,2013-04-29 23:00:00,
2013-04-29 19:01:00,55.2,45.6,30.13,West,267,0.0,0.0,70,0.00,,---,0.00,14.00,VWS V14.00,2013-04-29 23:01:00,
2013-04-29 19:06:00,55.1,45.5,30.13,West,267,0.0,0.0,70,0.00,,---,0.00,14.00,VWS V14.00,2013-04-29 23:06:00,
2013-04-29 19:11:00,55.0,45.0,30.13,West,267,0.0,1.0,69,0.00,,---,0.00,14.00,VWS V14.00,2013-04-29 23:11:00,
2013-04-29 19:16:00,54.9,46.1,30.13,West,267,0.0,0.0,72,0.00,,---,0.00,12.00,VWS V14.00,2013-04-29 23:16:00,
2013-04-29 19:21:00,54.8,46.0,30.13,West,267,0.0,0.0,72,0.00,,---,0.00,12.00,VWS V14.00,2013-04-29 23:21:00,
2013-04-29 19:26:00,54.6,45.8,30.13,West,267,0.0,1.0,72,0.00,,---,0.00,12.00,VWS V14.00,2013-04-29 23:26:00,
2013-04-29 19:30:00,49.5,37.4,30.12,ENE,65,0.0,2.0,63,0.00,,---,0.00,0.00,VWS V14.00,2013-04-29 23:30:00,
2013-04-29 19:31:00,54.5,46.0,30.13,West,267,0.0,1.0,73,0.00,,---,0.00,12.00,VWS V14.00,2013-04-29 23:31:00,
2013-04-29 19:36:00,54.3,45.8,30.13,West,267,0.0,1.0,73,0.00,,---,0.00,12.00,VWS V14.00,2013-04-29 23:36:00,
2013-04-29 19:41:00,54.2,45.8,30.13,West,267,0.0,1.0,73,0.00,,---,0.00,11.00,VWS V14.00,2013-04-29 23:41:00,
2013-04-29 19:46:00,54.1,46.4,30.13,West,267,0.0,0.0,75,0.00,,---,0.00,9.00,VWS V14.00,2013-04-29 23:46:00,
2013-04-29 19:51:00,54.0,46.3,30.13,West,267,0.0,0.0,75,0.00,,---,0.00,7.00,VWS V14.00,2013-04-29 23:51:00,
2013-04-29 19:56:00,53.8,46.1,30.13,West,267,0.0,0.0,75,0.00,,---,0.00,0.00,VWS V14.00,2013-04-29 23:56:00,
2013-04-29 20:00:00,49.0,37.8,30.12,East,91,0.0,5.0,65,0.00,,---,0.00,0.00,VWS V14.00,2013-04-30 00:00:00,
2013-04-29 20:01:00,53.6,45.9,30.13,West,267,0.0,0.0,75,0.00,,---,0.00,0.00,VWS V14.00,2013-04-30 00:01:00,
2013-04-29 20:06:00,53.5,45.8,30.13,West,267,0.0,0.0,75,0.00,,---,0.00,0.00,VWS V14.00,2013-04-30 00:06:00,
2013-04-29 20:11:00,53.4,45.7,30.13,West,267,0.0,0.0,75,0.00,,---,0.00,0.00,VWS V14.00,2013-04-30 00:11:00,
2013-04-29 20:16:00,53.3,45.9,30.13,West,267,1.0,1.0,76,0.00,,---,0.00,0.00,VWS V14.00,2013-04-30 00:16:00,
2013-04-29 20:21:00,53.1,45.8,30.14,West,267,0.0,1.0,76,0.00,,---,0.00,0.00,VWS V14.00,2013-04-30 00:21:00,
2013-04-29 20:26:00,53.0,45.7,30.14,West,267,0.0,1.0,76,0.00,,---,0.00,0.00,VWS V14.00,2013-04-30 00:26:00,
2013-04-29 20:30:00,53.0,35.9,30.12,SW,230,2.0,4.0,52,0.00,,---,0.00,0.00,VWS V14.00,2013-04-30 00:30:00,
2013-04-29 20:31:00,52.8,45.5,30.14,West,267,0.0,1.0,76,0.00,,---,0.00,0.00,VWS V14.00,2013-04-30 00:31:00,
2013-04-29 20:36:00,52.7,45.7,30.14,West,267,0.0,1.0,77,0.00,,---,0.00,0.00,VWS V14.00,2013-04-30 00:36:00,
2013-04-29 20:41:00,52.4,45.8,30.14,West,267,0.0,1.0,78,0.00,,---,0.00,0.00,VWS V14.00,2013-04-30 00:41:00,
2013-04-29 20:46:00,52.3,45.7,30.14,West,267,0.0,0.0,78,0.00,,---,0.00,0.00,VWS V14.00,2013-04-30 00:46:00,
2013-04-29 20:51:00,52.1,45.5,30.15,West,267,0.0,0.0,78,0.00,,---,0.00,0.00,VWS V14.00,2013-04-30 00:51:00,
2013-04-29 20:56:00,51.8,45.5,30.15,West,267,0.0,0.0,79,0.00,,---,0.00,0.00,VWS V14.00,2013-04-30 00:56:00,
2013-04-29 21:00:00,54.7,36.4,30.13,ESE,121,4.0,9.0,50,0.00,,---,0.00,0.00,VWS V14.00,2013-04-30 01:00:00,
2013-04-29 21:01:00,51.6,45.3,30.15,West,267,0.0,0.0,79,0.00,,---,0.00,0.00,VWS V14.00,2013-04-30 01:01:00,
2013-04-29 21:06:00,51.5,45.2,30.15,West,267,0.0,0.0,79,0.00,,---,0.00,0.00,VWS V14.00,2013-04-30 01:06:00,
2013-04-29 21:11:00,51.3,45.0,30.15,West,267,0.0,0.0,79,0.00,,---,0.00,0.00,VWS V14.00,2013-04-30 01:11:00,
2013-04-29 21:16:00,51.2,45.2,30.16,West,267,0.0,0.0,80,0.00,,---,0.00,0.00,VWS V14.00,2013-04-30 01:16:00,
2013-04-29 21:22:00,51.1,44.8,30.16,West,267,0.0,1.0,79,0.00,,---,0.00,0.00,VWS V14.00,2013-04-30 01:22:00,
2013-04-29 21:26:00,51.1,45.2,30.16,West,267,0.0,1.0,80,0.00,,---,0.00,0.00,VWS V14.00,2013-04-30 01:26:00,
2013-04-29 21:30:00,54.1,36.4,30.14,South,182,0.0,7.0,51,0.00,,---,0.00,0.00,VWS V14.00,2013-04-30 01:30:00,
2013-04-29 21:32:00,51.0,45.1,30.16,West,267,0.0,1.0,80,0.00,,---,0.00,0.00,VWS V14.00,2013-04-30 01:32:00,
2013-04-29 21:37:00,50.9,45.0,30.16,West,267,0.0,1.0,80,0.00,,---,0.00,0.00,VWS V14.00,2013-04-30 01:37:00,
2013-04-29 21:42:00,50.8,44.9,30.16,West,267,0.0,1.0,80,0.00,,---,0.00,0.00,VWS V14.00,2013-04-30 01:42:00,
2013-04-29 21:47:00,50.8,44.9,30.16,West,267,0.0,0.0,80,0.00,,---,0.00,0.00,VWS V14.00,2013-04-30 01:47:00,
2013-04-29 21:52:00,50.7,44.8,30.16,West,267,0.0,0.0,80,0.00,,---,0.00,0.00,VWS V14.00,2013-04-30 01:52:00,
2013-04-29 21:57:00,50.8,44.2,30.16,SSW,204,3.0,5.0,78,0.00,,---,0.00,0.00,VWS V14.00,2013-04-30 01:57:00,
2013-04-29 22:00:00,53.6,36.9,30.14,SSE,166,1.0,7.0,53,0.00,,---,0.00,0.00,VWS V14.00,2013-04-30 02:00:00,
2013-04-29 22:02:00,51.2,43.6,30.16,SSW,197,0.0,5.0,75,0.00,,---,0.00,0.00,VWS V14.00,2013-04-30 02:02:00,
2013-04-29 22:07:00,51.6,44.0,30.16,SSW,197,0.0,5.0,75,0.00,,---,0.00,0.00,VWS V14.00,2013-04-30 02:07:00,
2013-04-29 22:12:00,51.7,43.7,30.16,South,185,1.0,5.0,74,0.00,,---,0.00,0.00,VWS V14.00,2013-04-30 02:12:00,
2013-04-29 22:17:00,51.6,44.3,30.17,South,185,1.0,1.0,76,0.00,,---,0.00,0.00,VWS V14.00,2013-04-30 02:17:00,
2013-04-29 22:22:00,51.5,43.5,30.16,South,185,0.0,1.0,74,0.00,,---,0.00,0.00,VWS V14.00,2013-04-30 02:22:00,
2013-04-29 22:27:00,51.4,43.8,30.16,South,185,0.0,1.0,75,0.00,,---,0.00,0.00,VWS V14.00,2013-04-30 02:27:00,
2013-04-29 22:30:00,52.7,37.0,30.14,SSE,159,2.0,7.0,55,0.00,,---,0.00,0.00,VWS V14.00,2013-04-30 02:30:00,
2013-04-29 22:32:00,51.4,43.8,30.16,South,185,0.0,1.0,75,0.00,,---,0.00,0.00,VWS V14.00,2013-04-30 02:32:00,
2013-04-29 22:37:00,51.4,43.8,30.16,South,185,0.0,1.0,75,0.00,,---,0.00,0.00,VWS V14.00,2013-04-30 02:37:00,
2013-04-29 22:42:00,51.4,43.8,30.16,South,185,0.0,1.0,75,0.00,,---,0.00,0.00,VWS V14.00,2013-04-30 02:42:00,
2013-04-29 22:47:00,51.2,43.9,30.17,South,185,0.0,0.0,76,0.00,,---,0.00,0.00,VWS V14.00,2013-04-30 02:47:00,
2013-04-29 22:52:00,51.2,43.9,30.17,South,185,0.0,1.0,76,0.00,,---,0.00,0.00,VWS V14.00,2013-04-30 02:52:00,
2013-04-29 22:57:00,51.0,43.7,30.17,South,185,0.0,1.0,76,0.00,,---,0.00,0.00,VWS V14.00,2013-04-30 02:57:00,
2013-04-29 23:00:00,52.8,37.5,30.14,SSE,151,0.0,12.0,56,0.00,,---,0.00,0.00,VWS V14.00,2013-04-30 03:00:00,
2013-04-29 23:02:00,50.9,43.6,30.17,South,185,0.0,1.0,76,0.00,,---,0.00,0.00,VWS V14.00,2013-04-30 03:02:00,
2013-04-29 23:07:00,50.8,43.2,30.17,South,185,0.0,1.0,75,0.00,,---,0.00,0.00,VWS V14.00,2013-04-30 03:07:00,
2013-04-29 23:12:00,50.8,42.5,30.17,South,184,1.0,3.0,73,0.00,,---,0.00,0.00,VWS V14.00,2013-04-30 03:12:00,
2013-04-29 23:17:00,51.0,42.3,30.17,ENE,74,0.0,0.0,72,0.00,,---,0.00,0.00,VWS V14.00,2013-04-30 03:17:00,
2013-04-29 23:22:00,51.0,42.3,30.17,SSE,152,0.0,3.0,72,0.00,,---,0.00,0.00,VWS V14.00,2013-04-30 03:22:00,
2013-04-29 23:27:00,51.1,42.8,30.17,SSE,152,0.0,3.0,73,0.00,,---,0.00,0.00,VWS V14.00,2013-04-30 03:27:00,
2013-04-29 23:30:00,51.5,37.2,30.13,ESE,119,1.0,9.0,58,0.00,,---,0.00,0.00,VWS V14.00,2013-04-30 03:30:00,
2013-04-29 23:32:00,51.1,42.8,30.17,ENE,76,2.0,3.0,73,0.00,,---,0.00,0.00,VWS V14.00,2013-04-30 03:32:00,
2013-04-29 23:37:00,51.1,42.4,30.17,ENE,76,0.0,3.0,72,0.00,,---,0.00,0.00,VWS V14.00,2013-04-30 03:37:00,
2013-04-29 23:42:00,51.1,42.0,30.17,ENE,76,0.0,3.0,71,0.00,,---,0.00,0.00,VWS V14.00,2013-04-30 03:42:00,
2013-04-29 23:47:00,51.1,42.4,30.17,West,279,1.0,4.0,72,0.00,,---,0.00,0.00,VWS V14.00,2013-04-30 03:47:00,
2013-04-29 23:52:00,51.2,41.8,30.17,SSW,203,0.0,5.0,70,0.00,,---,0.00,0.00,VWS V14.00,2013-04-30 03:52:00,
2013-04-29 23:57:00,51.2,42.1,30.17,East,97,2.0,5.0,71,0.00,,---,0.00,0.00,VWS V14.00,2013-04-30 03:57:00,